createdAt,value
2019-01-16T00:00:37.577Z,0
2019-01-16T00:01:39.728Z,0
2019-01-16T00:02:41.871Z,0
2019-01-16T00:03:44.024Z,0
2019-01-16T00:04:46.485Z,0
2019-01-16T00:05:48.829Z,0
2019-01-16T00:06:50.971Z,0
2019-01-16T00:07:53.203Z,0
2019-01-16T00:08:55.353Z,0
2019-01-16T00:09:57.766Z,0
2019-01-16T00:10:59.901Z,0
2019-01-16T00:12:02.056Z,0
2019-01-16T00:13:04.319Z,0
2019-01-16T00:14:06.449Z,0
2019-01-16T00:15:08.908Z,0
2019-01-16T00:16:11.037Z,0
2019-01-16T00:17:13.576Z,0
2019-01-16T00:18:17.123Z,0
2019-01-16T00:19:19.548Z,0
2019-01-16T00:20:21.743Z,0
2019-01-16T00:21:23.897Z,0
2019-01-16T00:22:26.054Z,0
2019-01-16T00:23:28.210Z,0
2019-01-16T00:24:30.348Z,0
2019-01-16T00:25:32.476Z,0
2019-01-16T00:26:34.637Z,0
2019-01-16T00:27:36.766Z,0
2019-01-16T00:28:38.939Z,0
2019-01-16T00:29:41.082Z,0
2019-01-16T00:30:43.232Z,0
2019-01-16T00:31:45.415Z,0
2019-01-16T00:32:47.922Z,0
2019-01-16T00:33:50.497Z,0
2019-01-16T00:34:53.093Z,0
2019-01-16T00:35:55.251Z,0
2019-01-16T00:36:57.485Z,0
2019-01-16T00:37:59.653Z,0
2019-01-16T00:39:01.802Z,0
2019-01-16T00:40:03.928Z,0
2019-01-16T00:41:06.106Z,0
2019-01-16T00:42:08.248Z,0
2019-01-16T00:43:11.430Z,0
2019-01-16T00:44:13.587Z,0
2019-01-16T00:45:15.734Z,0
2019-01-16T00:46:18.271Z,0
2019-01-16T00:47:20.415Z,0
2019-01-16T00:48:24.575Z,0
2019-01-16T00:49:26.863Z,0
2019-01-16T00:50:29.002Z,0
2019-01-16T00:51:31.178Z,0
2019-01-16T00:52:33.727Z,0
2019-01-16T00:53:36.158Z,0
2019-01-16T00:54:38.329Z,0
2019-01-16T00:55:40.455Z,0
2019-01-16T00:56:42.878Z,0
2019-01-16T00:57:45.056Z,0
2019-01-16T00:58:47.246Z,0
2019-01-16T00:59:49.381Z,0
2019-01-16T01:00:51.826Z,0
2019-01-16T01:01:53.947Z,0
2019-01-16T01:02:56.078Z,0
2019-01-16T01:03:58.201Z,0
2019-01-16T01:05:00.947Z,0
2019-01-16T01:06:07.808Z,0
2019-01-16T01:07:09.971Z,0
2019-01-16T01:08:12.392Z,0
2019-01-16T01:09:14.520Z,0
2019-01-16T01:10:16.668Z,0
2019-01-16T01:11:18.808Z,0
2019-01-16T01:12:20.953Z,0
2019-01-16T01:13:23.072Z,0
2019-01-16T01:14:25.215Z,0
2019-01-16T01:15:27.361Z,0
2019-01-16T01:16:29.472Z,0
2019-01-16T01:17:31.605Z,0
2019-01-16T01:18:40.432Z,0
2019-01-16T01:19:43.489Z,0
2019-01-16T01:20:45.645Z,0
2019-01-16T01:21:47.765Z,0
2019-01-16T01:22:49.913Z,0
2019-01-16T01:23:52.166Z,0
2019-01-16T01:24:54.332Z,0
2019-01-16T01:25:56.480Z,0
2019-01-16T01:26:58.628Z,0
2019-01-16T01:28:00.764Z,0
2019-01-16T01:29:03.270Z,0
2019-01-16T01:30:05.413Z,0
2019-01-16T01:31:07.560Z,0
2019-01-16T01:32:09.701Z,0
2019-01-16T01:33:11.842Z,0
2019-01-16T01:34:13.969Z,0
2019-01-16T01:35:16.084Z,0
2019-01-16T01:36:18.503Z,0
2019-01-16T01:37:20.639Z,0
2019-01-16T01:38:23.065Z,0
2019-01-16T01:39:25.204Z,0
2019-01-16T01:40:27.401Z,0
2019-01-16T01:41:29.520Z,0
2019-01-16T01:42:31.657Z,0
2019-01-16T01:43:34.372Z,0
2019-01-16T01:44:36.817Z,0
2019-01-16T01:45:38.945Z,0
2019-01-16T01:46:41.081Z,0
2019-01-16T01:47:43.529Z,0
2019-01-16T01:48:45.716Z,0
2019-01-16T01:49:47.866Z,0
2019-01-16T01:50:49.998Z,0
2019-01-16T01:51:52.127Z,0
2019-01-16T01:52:54.276Z,0
2019-01-16T01:53:56.416Z,0
2019-01-16T01:54:58.927Z,0
2019-01-16T01:56:01.110Z,0
2019-01-16T01:57:03.245Z,0
2019-01-16T01:58:05.698Z,0
2019-01-16T01:59:07.843Z,0
2019-01-16T02:00:11.879Z,0
2019-01-16T02:01:14.382Z,0
2019-01-16T02:02:16.527Z,0
2019-01-16T02:03:18.655Z,0
2019-01-16T02:04:20.780Z,0
2019-01-16T02:05:22.907Z,0
2019-01-16T02:06:25.042Z,0
2019-01-16T02:07:27.173Z,0
2019-01-16T02:08:29.323Z,0
2019-01-16T02:09:31.479Z,0
2019-01-16T02:10:33.624Z,0
2019-01-16T02:11:35.759Z,0
2019-01-16T02:12:37.912Z,0
2019-01-16T02:13:40.053Z,0
2019-01-16T02:14:42.239Z,0
2019-01-16T02:15:44.385Z,0
2019-01-16T02:16:46.519Z,0
2019-01-16T02:17:48.669Z,0
2019-01-16T02:18:50.808Z,0
2019-01-16T02:19:53.222Z,0
2019-01-16T02:20:55.350Z,0
2019-01-16T02:21:57.497Z,0
2019-01-16T02:22:59.640Z,0
2019-01-16T02:24:01.791Z,0
2019-01-16T02:25:04.210Z,0
2019-01-16T02:26:06.738Z,0
2019-01-16T02:27:08.892Z,0
2019-01-16T02:28:11.319Z,0
2019-01-16T02:29:13.441Z,0
2019-01-16T02:30:15.589Z,0
2019-01-16T02:31:18.318Z,0
2019-01-16T02:32:20.469Z,0
2019-01-16T02:33:22.607Z,0
2019-01-16T02:34:24.745Z,0
2019-01-16T02:35:26.869Z,0
2019-01-16T02:36:29.053Z,0
2019-01-16T02:37:31.212Z,0
2019-01-16T02:38:33.342Z,0
2019-01-16T02:39:35.495Z,0
2019-01-16T02:40:37.635Z,0
2019-01-16T02:41:39.822Z,0
2019-01-16T02:42:41.962Z,0
2019-01-16T02:43:44.082Z,0
2019-01-16T02:44:46.603Z,0
2019-01-16T02:45:48.738Z,0
2019-01-16T02:46:51.189Z,0
2019-01-16T02:47:53.326Z,0
2019-01-16T02:48:55.955Z,0
2019-01-16T02:49:58.579Z,0
2019-01-16T02:51:00.725Z,0
2019-01-16T02:52:03.159Z,0
2019-01-16T02:53:05.312Z,0
2019-01-16T02:54:07.486Z,0
2019-01-16T02:55:09.902Z,0
2019-01-16T02:56:12.027Z,0
2019-01-16T02:57:14.170Z,0
2019-01-16T02:58:16.322Z,0
2019-01-16T02:59:18.470Z,0
2019-01-16T03:00:20.615Z,0
2019-01-16T03:01:22.757Z,0
2019-01-16T03:02:24.886Z,0
2019-01-16T03:03:27.030Z,0
2019-01-16T03:04:29.640Z,0
2019-01-16T03:05:31.770Z,0
2019-01-16T03:06:33.907Z,0
2019-01-16T03:07:36.046Z,0
2019-01-16T03:08:38.789Z,0
2019-01-16T03:09:40.947Z,0
2019-01-16T03:10:43.367Z,0
2019-01-16T03:11:45.525Z,0
2019-01-16T03:12:47.659Z,0
2019-01-16T03:13:49.812Z,0
2019-01-16T03:14:52.246Z,0
2019-01-16T03:15:54.675Z,0
2019-01-16T03:16:56.818Z,0
2019-01-16T03:17:58.958Z,0
2019-01-16T03:19:04.622Z,0
2019-01-16T03:20:07.037Z,0
2019-01-16T03:21:09.207Z,0
2019-01-16T03:22:12.022Z,0
2019-01-16T03:23:14.417Z,0
2019-01-16T03:24:17.672Z,0
2019-01-16T03:25:19.890Z,0
2019-01-16T03:26:22.314Z,0
2019-01-16T03:27:25.054Z,0
2019-01-16T03:28:27.293Z,0
2019-01-16T03:29:29.431Z,0
2019-01-16T03:30:31.853Z,0
2019-01-16T03:31:35.033Z,0
2019-01-16T03:32:38.439Z,0
2019-01-16T03:33:41.571Z,0
2019-01-16T03:34:43.737Z,0
2019-01-16T03:35:45.853Z,0
2019-01-16T03:36:47.998Z,0
2019-01-16T03:37:50.140Z,0
2019-01-16T03:38:52.288Z,0
2019-01-16T03:39:54.424Z,0
2019-01-16T03:40:56.558Z,0
2019-01-16T03:41:58.993Z,0
2019-01-16T03:43:01.432Z,0
2019-01-16T03:44:04.247Z,0
2019-01-16T03:45:06.693Z,0
2019-01-16T03:46:08.835Z,0
2019-01-16T03:47:11.010Z,0
2019-01-16T03:48:13.144Z,0
2019-01-16T03:49:15.337Z,0
2019-01-16T03:50:17.777Z,0
2019-01-16T03:51:19.953Z,0
2019-01-16T03:52:22.080Z,0
2019-01-16T03:53:24.222Z,0
2019-01-16T03:54:26.779Z,0
2019-01-16T03:55:28.961Z,0
2019-01-16T03:56:31.105Z,0
2019-01-16T03:57:33.518Z,0
2019-01-16T03:58:35.716Z,0
2019-01-16T03:59:37.876Z,0
2019-01-16T04:00:40.310Z,0
2019-01-16T04:01:42.446Z,0
2019-01-16T04:02:44.876Z,0
2019-01-16T04:03:47.288Z,0
2019-01-16T04:04:49.423Z,0
2019-01-16T04:05:51.826Z,0
2019-01-16T04:06:54.229Z,0
2019-01-16T04:07:56.886Z,0
2019-01-16T04:08:59.029Z,0
2019-01-16T04:10:01.461Z,0
2019-01-16T04:11:03.634Z,0
2019-01-16T04:12:06.279Z,0
2019-01-16T04:13:08.745Z,0
2019-01-16T04:14:11.177Z,0
2019-01-16T04:15:13.321Z,0
2019-01-16T04:16:15.444Z,0
2019-01-16T04:17:17.897Z,0
2019-01-16T04:18:20.036Z,0
2019-01-16T04:19:22.192Z,0
2019-01-16T04:20:24.363Z,0
2019-01-16T04:21:26.517Z,0
2019-01-16T04:22:28.674Z,0
2019-01-16T04:23:30.812Z,0
2019-01-16T04:24:33.537Z,0
2019-01-16T04:25:35.667Z,0
2019-01-16T04:26:38.115Z,0
2019-01-16T04:27:40.290Z,0
2019-01-16T04:28:42.447Z,0
2019-01-16T04:29:44.594Z,0
2019-01-16T04:30:46.777Z,0
2019-01-16T04:31:48.915Z,0
2019-01-16T04:32:51.033Z,0
2019-01-16T04:33:53.190Z,0
2019-01-16T04:34:55.733Z,0
2019-01-16T04:35:58.235Z,0
2019-01-16T04:37:00.353Z,0
2019-01-16T04:38:02.910Z,0
2019-01-16T04:39:05.731Z,0
2019-01-16T04:40:07.872Z,0
2019-01-16T04:41:10.302Z,0
2019-01-16T04:42:12.429Z,0
2019-01-16T04:43:15.230Z,0
2019-01-16T04:44:17.373Z,0
2019-01-16T04:45:19.918Z,0
2019-01-16T04:46:22.330Z,0
2019-01-16T04:47:24.460Z,0
2019-01-16T04:48:26.602Z,0
2019-01-16T04:49:30.250Z,0
2019-01-16T04:50:32.882Z,0
2019-01-16T04:51:35.022Z,0
2019-01-16T04:52:37.175Z,0
2019-01-16T04:53:39.350Z,0
2019-01-16T04:54:41.884Z,0
2019-01-16T04:55:44.044Z,0
2019-01-16T04:56:46.186Z,0
2019-01-16T04:57:48.308Z,0
2019-01-16T04:58:50.726Z,0
2019-01-16T04:59:53.154Z,0
2019-01-16T05:00:55.343Z,0
2019-01-16T05:01:57.499Z,0
2019-01-16T05:02:59.647Z,0
2019-01-16T05:04:02.100Z,0
2019-01-16T05:05:04.553Z,0
2019-01-16T05:06:06.683Z,0
2019-01-16T05:07:09.136Z,0
2019-01-16T05:08:11.282Z,0
2019-01-16T05:09:14.077Z,0
2019-01-16T05:10:16.772Z,0
2019-01-16T05:11:18.906Z,0
2019-01-16T05:12:21.418Z,0
2019-01-16T05:13:23.883Z,0
2019-01-16T05:14:26.030Z,0
2019-01-16T05:15:28.883Z,0
2019-01-16T05:16:31.022Z,0
2019-01-16T05:17:33.170Z,0
2019-01-16T05:18:35.307Z,0
2019-01-16T05:19:38.609Z,0
2019-01-16T05:20:41.097Z,0
2019-01-16T05:21:43.233Z,0
2019-01-16T05:22:45.667Z,0
2019-01-16T05:23:47.812Z,0
2019-01-16T05:24:50.231Z,0
2019-01-16T05:25:52.657Z,0
2019-01-16T05:26:55.151Z,0
2019-01-16T05:27:57.579Z,0
2019-01-16T05:28:59.716Z,0
2019-01-16T05:30:01.871Z,0
2019-01-16T05:31:04.342Z,0
2019-01-16T05:32:06.769Z,0
2019-01-16T05:33:09.289Z,0
2019-01-16T05:34:11.442Z,0
2019-01-16T05:35:13.595Z,0
2019-01-16T05:36:15.738Z,0
2019-01-16T05:37:18.164Z,0
2019-01-16T05:38:20.314Z,0
2019-01-16T05:39:22.741Z,0
2019-01-16T05:40:25.254Z,0
2019-01-16T05:41:27.385Z,0
2019-01-16T05:42:29.547Z,0
2019-01-16T05:43:31.706Z,0
2019-01-16T05:44:33.861Z,0
2019-01-16T05:45:36.057Z,0
2019-01-16T05:46:38.599Z,0
2019-01-16T05:47:40.776Z,0
2019-01-16T05:48:42.914Z,0
2019-01-16T05:49:46.694Z,0
2019-01-16T05:50:49.511Z,0
2019-01-16T05:51:51.662Z,0
2019-01-16T05:52:54.194Z,0
2019-01-16T05:53:56.338Z,0
2019-01-16T05:54:58.502Z,0
2019-01-16T05:56:00.649Z,0
2019-01-16T05:57:03.064Z,0
2019-01-16T05:58:05.215Z,0
2019-01-16T05:59:07.364Z,0
2019-01-16T06:00:09.590Z,0
2019-01-16T06:01:11.716Z,0
2019-01-16T06:02:13.918Z,0
2019-01-16T06:03:16.351Z,0
2019-01-16T06:04:18.762Z,0
2019-01-16T06:05:21.198Z,0
2019-01-16T06:06:23.323Z,0
2019-01-16T06:07:25.461Z,0
2019-01-16T06:08:27.605Z,0
2019-01-16T06:09:29.762Z,0
2019-01-16T06:10:31.897Z,0
2019-01-16T06:11:34.316Z,0
2019-01-16T06:12:37.123Z,0
2019-01-16T06:13:39.264Z,0
2019-01-16T06:14:41.393Z,0
2019-01-16T06:15:43.534Z,0
2019-01-16T06:16:45.674Z,0
2019-01-16T06:17:48.106Z,0
2019-01-16T06:18:50.637Z,0
2019-01-16T06:19:54.086Z,0
2019-01-16T06:20:56.340Z,0
2019-01-16T06:21:58.475Z,0
2019-01-16T06:23:00.595Z,0
2019-01-16T06:24:02.731Z,0
2019-01-16T06:25:04.867Z,0
2019-01-16T06:26:07.404Z,0
2019-01-16T06:27:09.545Z,0
2019-01-16T06:28:12.064Z,0
2019-01-16T06:29:14.242Z,0
2019-01-16T06:30:16.659Z,0
2019-01-16T06:31:18.797Z,0
2019-01-16T06:32:20.924Z,0
2019-01-16T06:33:23.061Z,0
2019-01-16T06:34:26.495Z,0
2019-01-16T06:35:28.946Z,0
2019-01-16T06:36:31.098Z,0
2019-01-16T06:37:33.244Z,0
2019-01-16T06:38:35.650Z,0
2019-01-16T06:39:37.814Z,0
2019-01-16T06:40:39.965Z,0
2019-01-16T06:41:42.402Z,0
2019-01-16T06:42:44.515Z,0
2019-01-16T06:43:46.671Z,0
2019-01-16T06:44:48.801Z,0
2019-01-16T06:45:50.917Z,0
2019-01-16T06:46:53.071Z,0
2019-01-16T06:47:55.211Z,4
2019-01-16T06:48:57.344Z,4
2019-01-16T06:50:01.740Z,0
2019-01-16T06:51:04.283Z,0
2019-01-16T06:52:06.433Z,4
2019-01-16T06:53:08.584Z,4
2019-01-16T06:54:10.709Z,4
2019-01-16T06:55:12.835Z,8
2019-01-16T06:56:15.038Z,4
2019-01-16T06:57:17.160Z,8
2019-01-16T06:58:19.279Z,8
2019-01-16T06:59:21.705Z,8
2019-01-16T07:00:23.842Z,12
2019-01-16T07:01:25.993Z,12
2019-01-16T07:02:28.131Z,16
2019-01-16T07:03:30.269Z,16
2019-01-16T07:04:32.411Z,16
2019-01-16T07:05:34.543Z,16
2019-01-16T07:06:36.702Z,12
2019-01-16T07:07:38.890Z,12
2019-01-16T07:08:41.025Z,8
2019-01-16T07:09:43.190Z,12
2019-01-16T07:10:45.620Z,20
2019-01-16T07:11:48.034Z,36
2019-01-16T07:12:50.227Z,48
2019-01-16T07:13:52.378Z,52
2019-01-16T07:14:54.907Z,56
2019-01-16T07:15:57.029Z,64
2019-01-16T07:16:59.162Z,72
2019-01-16T07:18:01.300Z,76
2019-01-16T07:19:03.427Z,88
2019-01-16T07:20:09.728Z,92
2019-01-16T07:21:12.539Z,88
2019-01-16T07:22:14.744Z,92
2019-01-16T07:23:16.881Z,96
2019-01-16T07:24:19.015Z,84
2019-01-16T07:25:21.150Z,72
2019-01-16T07:26:23.275Z,80
2019-01-16T07:27:25.413Z,76
2019-01-16T07:28:27.533Z,68
2019-01-16T07:29:29.653Z,56
2019-01-16T07:30:32.061Z,96
2019-01-16T07:31:34.197Z,84
2019-01-16T07:32:36.377Z,80
2019-01-16T07:33:38.517Z,96
2019-01-16T07:34:40.936Z,140
2019-01-16T07:35:43.358Z,172
2019-01-16T07:36:45.492Z,168
2019-01-16T07:37:47.643Z,192
2019-01-16T07:38:49.783Z,176
2019-01-16T07:39:51.924Z,176
2019-01-16T07:40:54.056Z,180
2019-01-16T07:41:56.184Z,152
2019-01-16T07:42:58.337Z,200
2019-01-16T07:44:00.471Z,220
2019-01-16T07:45:02.611Z,236
2019-01-16T07:46:04.755Z,256
2019-01-16T07:47:06.890Z,252
2019-01-16T07:48:09.037Z,204
2019-01-16T07:49:11.178Z,200
2019-01-16T07:50:17.298Z,176
2019-01-16T07:51:19.784Z,136
2019-01-16T07:52:21.953Z,156
2019-01-16T07:53:24.105Z,156
2019-01-16T07:54:26.540Z,164
2019-01-16T07:55:28.668Z,140
2019-01-16T07:56:30.804Z,180
2019-01-16T07:57:32.947Z,164
2019-01-16T07:58:35.078Z,212
2019-01-16T07:59:37.280Z,252
2019-01-16T08:00:40.007Z,308
2019-01-16T08:01:42.138Z,276
2019-01-16T08:02:44.336Z,272
2019-01-16T08:03:46.762Z,320
2019-01-16T08:04:48.895Z,200
2019-01-16T08:05:51.016Z,184
2019-01-16T08:06:53.150Z,236
2019-01-16T08:07:55.292Z,336
2019-01-16T08:08:57.418Z,240
2019-01-16T08:09:59.555Z,208
2019-01-16T08:11:02.130Z,228
2019-01-16T08:12:04.265Z,268
2019-01-16T08:13:06.696Z,288
2019-01-16T08:14:08.835Z,312
2019-01-16T08:15:10.978Z,412
2019-01-16T08:16:13.167Z,360
2019-01-16T08:17:15.302Z,344
2019-01-16T08:18:17.428Z,480
2019-01-16T08:19:19.558Z,736
2019-01-16T08:20:24.995Z,684
2019-01-16T08:21:27.621Z,616
2019-01-16T08:22:29.782Z,452
2019-01-16T08:23:31.934Z,376
2019-01-16T08:24:34.118Z,536
2019-01-16T08:25:36.238Z,632
2019-01-16T08:26:38.363Z,620
2019-01-16T08:27:40.872Z,468
2019-01-16T08:28:43.401Z,624
2019-01-16T08:29:45.570Z,852
2019-01-16T08:30:47.713Z,812
2019-01-16T08:31:49.851Z,912
2019-01-16T08:32:51.995Z,748
2019-01-16T08:33:54.120Z,624
2019-01-16T08:34:56.242Z,440
2019-01-16T08:35:58.385Z,404
2019-01-16T08:37:00.533Z,448
2019-01-16T08:38:02.660Z,552
2019-01-16T08:39:04.774Z,448
2019-01-16T08:40:06.901Z,436
2019-01-16T08:41:09.016Z,556
2019-01-16T08:42:11.179Z,624
2019-01-16T08:43:13.349Z,732
2019-01-16T08:44:15.506Z,952
2019-01-16T08:45:17.652Z,1148
2019-01-16T08:46:19.799Z,1056
2019-01-16T08:47:21.945Z,1384
2019-01-16T08:48:24.077Z,1544
2019-01-16T08:49:26.555Z,1460
2019-01-16T08:50:32.565Z,1536
2019-01-16T08:51:35.001Z,1468
2019-01-16T08:52:37.131Z,1224
2019-01-16T08:53:39.260Z,1304
2019-01-16T08:54:41.412Z,1376
2019-01-16T08:55:43.596Z,1320
2019-01-16T08:56:45.748Z,1252
2019-01-16T08:57:47.919Z,1260
2019-01-16T08:58:50.741Z,1228
2019-01-16T08:59:52.868Z,1496
2019-01-16T09:00:55.011Z,1548
2019-01-16T09:01:57.842Z,1512
2019-01-16T09:02:59.984Z,1564
2019-01-16T09:04:02.998Z,1424
2019-01-16T09:05:05.416Z,1344
2019-01-16T09:06:07.534Z,1540
2019-01-16T09:07:09.651Z,1584
2019-01-16T09:08:11.766Z,1716
2019-01-16T09:09:14.253Z,1448
2019-01-16T09:10:16.423Z,1408
2019-01-16T09:11:18.832Z,1072
2019-01-16T09:12:21.245Z,1260
2019-01-16T09:13:23.352Z,1380
2019-01-16T09:14:25.546Z,1240
2019-01-16T09:15:34.528Z,1060
2019-01-16T09:16:37.147Z,980
2019-01-16T09:17:39.266Z,896
2019-01-16T09:18:43.519Z,764
2019-01-16T09:19:45.643Z,744
2019-01-16T09:20:47.759Z,708
2019-01-16T09:21:49.885Z,772
2019-01-16T09:22:51.994Z,768
2019-01-16T09:23:54.125Z,816
2019-01-16T09:24:56.243Z,1112
2019-01-16T09:25:58.634Z,1084
2019-01-16T09:27:00.777Z,940
2019-01-16T09:28:03.188Z,1056
2019-01-16T09:29:05.303Z,1292
2019-01-16T09:30:07.424Z,1256
2019-01-16T09:31:09.833Z,1076
2019-01-16T09:32:11.941Z,896
2019-01-16T09:33:14.065Z,844
2019-01-16T09:34:16.566Z,804
2019-01-16T09:35:19.001Z,824
2019-01-16T09:36:21.104Z,820
2019-01-16T09:37:23.220Z,700
2019-01-16T09:38:25.695Z,824
2019-01-16T09:39:27.873Z,1072
2019-01-16T09:40:30.268Z,1180
2019-01-16T09:41:32.386Z,1264
2019-01-16T09:42:34.800Z,1424
2019-01-16T09:43:36.920Z,1752
2019-01-16T09:44:39.088Z,1568
2019-01-16T09:45:41.201Z,1852
2019-01-16T09:46:43.305Z,2024
2019-01-16T09:47:45.440Z,2272
2019-01-16T09:48:47.563Z,2112
2019-01-16T09:49:49.678Z,2568
2019-01-16T09:50:51.807Z,3400
2019-01-16T09:51:53.922Z,3584
2019-01-16T09:52:56.433Z,2652
2019-01-16T09:53:58.569Z,3108
2019-01-16T09:55:00.709Z,3236
2019-01-16T09:56:03.592Z,3536
2019-01-16T09:57:05.743Z,3604
2019-01-16T09:58:08.147Z,3272
2019-01-16T09:59:10.258Z,2580
2019-01-16T10:00:12.400Z,1956
2019-01-16T10:01:14.554Z,1620
2019-01-16T10:02:16.982Z,1616
2019-01-16T10:03:19.101Z,1444
2019-01-16T10:04:21.231Z,1336
2019-01-16T10:05:23.344Z,1344
2019-01-16T10:06:25.495Z,1464
2019-01-16T10:07:28.003Z,1504
2019-01-16T10:08:30.099Z,1352
2019-01-16T10:09:32.231Z,1316
2019-01-16T10:10:34.731Z,1312
2019-01-16T10:11:36.886Z,1388
2019-01-16T10:12:39.017Z,1312
2019-01-16T10:13:41.138Z,1344
2019-01-16T10:14:43.264Z,1236
2019-01-16T10:15:45.372Z,1344
2019-01-16T10:16:47.713Z,1948
2019-01-16T10:17:50.259Z,2048
2019-01-16T10:18:52.397Z,1692
2019-01-16T10:19:54.512Z,1816
2019-01-16T10:20:56.657Z,1832
2019-01-16T10:21:58.770Z,1828
2019-01-16T10:23:00.887Z,1928
2019-01-16T10:24:03.028Z,1840
2019-01-16T10:25:05.420Z,2616
2019-01-16T10:26:07.563Z,2792
2019-01-16T10:27:10.157Z,3656
2019-01-16T10:28:12.290Z,3584
2019-01-16T10:29:14.396Z,2716
2019-01-16T10:30:16.514Z,2372
2019-01-16T10:31:18.630Z,3056
2019-01-16T10:32:20.750Z,2852
2019-01-16T10:33:23.280Z,2820
2019-01-16T10:34:25.396Z,1980
2019-01-16T10:35:27.512Z,2528
2019-01-16T10:36:29.622Z,2380
2019-01-16T10:37:32.034Z,2540
2019-01-16T10:38:34.133Z,1932
2019-01-16T10:39:36.261Z,1912
2019-01-16T10:40:38.822Z,1964
2019-01-16T10:41:40.926Z,2148
2019-01-16T10:42:43.052Z,2392
2019-01-16T10:43:45.175Z,2200
2019-01-16T10:44:47.279Z,2080
2019-01-16T10:45:49.395Z,2104
2019-01-16T10:46:51.530Z,1620
2019-01-16T10:47:53.649Z,1980
2019-01-16T10:48:55.775Z,1860
2019-01-16T10:49:57.890Z,1664
2019-01-16T10:51:03.218Z,1584
2019-01-16T10:52:05.481Z,1752
2019-01-16T10:53:07.890Z,1884
2019-01-16T10:54:09.988Z,1840
2019-01-16T10:55:12.402Z,2136
2019-01-16T10:56:14.519Z,2332
2019-01-16T10:57:16.620Z,2268
2019-01-16T10:58:18.751Z,2096
2019-01-16T10:59:21.147Z,2312
2019-01-16T11:00:23.257Z,2516
2019-01-16T11:01:25.364Z,2308
2019-01-16T11:02:27.505Z,2484
2019-01-16T11:03:29.614Z,2236
2019-01-16T11:04:32.150Z,2852
2019-01-16T11:05:34.282Z,2852
2019-01-16T11:06:36.375Z,2832
2019-01-16T11:07:38.505Z,3192
2019-01-16T11:08:40.623Z,3588
2019-01-16T11:09:42.739Z,3292
2019-01-16T11:10:44.837Z,3216
2019-01-16T11:11:46.954Z,3672
2019-01-16T11:12:49.371Z,3828
2019-01-16T11:13:51.776Z,3936
2019-01-16T11:14:53.904Z,3320
2019-01-16T11:15:56.288Z,2716
2019-01-16T11:16:58.398Z,2868
2019-01-16T11:18:00.538Z,2712
2019-01-16T11:19:02.651Z,3332
2019-01-16T11:20:04.759Z,3272
2019-01-16T11:21:10.905Z,3300
2019-01-16T11:22:13.567Z,3764
2019-01-16T11:23:15.679Z,3928
2019-01-16T11:24:17.808Z,3992
2019-01-16T11:25:20.209Z,3248
2019-01-16T11:26:22.339Z,3204
2019-01-16T11:27:24.440Z,3068
2019-01-16T11:28:26.567Z,2016
2019-01-16T11:29:28.700Z,1436
2019-01-16T11:30:30.812Z,1556
2019-01-16T11:31:32.947Z,1504
2019-01-16T11:32:35.056Z,1992
2019-01-16T11:33:37.177Z,1992
2019-01-16T11:34:39.289Z,2164
2019-01-16T11:35:41.428Z,2128
2019-01-16T11:36:43.943Z,2112
2019-01-16T11:37:46.058Z,1480
2019-01-16T11:38:48.175Z,1416
2019-01-16T11:39:50.276Z,1240
2019-01-16T11:40:52.405Z,1300
2019-01-16T11:41:54.531Z,1384
2019-01-16T11:42:57.042Z,1252
2019-01-16T11:43:59.150Z,1488
2019-01-16T11:45:01.280Z,1872
2019-01-16T11:46:03.404Z,2448
2019-01-16T11:47:05.511Z,2536
2019-01-16T11:48:07.644Z,3320
2019-01-16T11:49:10.035Z,2824
2019-01-16T11:50:12.155Z,2800
2019-01-16T11:51:18.600Z,2848
2019-01-16T11:52:21.105Z,2180
2019-01-16T11:53:23.213Z,2008
2019-01-16T11:54:25.340Z,1752
2019-01-16T11:55:27.442Z,1360
2019-01-16T11:56:29.566Z,1444
2019-01-16T11:57:31.697Z,1408
2019-01-16T11:58:33.820Z,1724
2019-01-16T11:59:35.929Z,2104
2019-01-16T12:00:38.070Z,2088
2019-01-16T12:01:40.186Z,1952
2019-01-16T12:02:42.582Z,2076
2019-01-16T12:03:45.087Z,2188
2019-01-16T12:04:48.718Z,2692
2019-01-16T12:05:50.930Z,2796
2019-01-16T12:06:53.340Z,3740
2019-01-16T12:07:55.454Z,4344
2019-01-16T12:08:57.587Z,3996
2019-01-16T12:09:59.691Z,3568
2019-01-16T12:11:01.933Z,2720
2019-01-16T12:12:04.060Z,2380
2019-01-16T12:13:06.469Z,2508
2019-01-16T12:14:08.882Z,2404
2019-01-16T12:15:11.399Z,2392
2019-01-16T12:16:13.523Z,2696
2019-01-16T12:17:15.905Z,3068
2019-01-16T12:18:18.033Z,2736
2019-01-16T12:19:20.729Z,3672
2019-01-16T12:20:22.834Z,2640
2019-01-16T12:21:26.462Z,2580
2019-01-16T12:22:28.829Z,2856
2019-01-16T12:23:30.948Z,2152
2019-01-16T12:24:33.082Z,1864
2019-01-16T12:25:35.207Z,1752
2019-01-16T12:26:37.325Z,1992
2019-01-16T12:27:39.451Z,2188
2019-01-16T12:28:41.554Z,1504
2019-01-16T12:29:43.677Z,1616
2019-01-16T12:30:46.090Z,1316
2019-01-16T12:31:48.209Z,1156
2019-01-16T12:32:51.999Z,1516
2019-01-16T12:33:54.140Z,1784
2019-01-16T12:34:56.573Z,1572
2019-01-16T12:35:58.689Z,1640
2019-01-16T12:37:00.820Z,1588
2019-01-16T12:38:02.932Z,1724
2019-01-16T12:39:05.344Z,1672
2019-01-16T12:40:07.469Z,1672
2019-01-16T12:41:09.611Z,2104
2019-01-16T12:42:11.731Z,2080
2019-01-16T12:43:14.130Z,2100
2019-01-16T12:44:16.246Z,2296
2019-01-16T12:45:18.425Z,1844
2019-01-16T12:46:20.840Z,1564
2019-01-16T12:47:22.965Z,1144
2019-01-16T12:48:25.136Z,1232
2019-01-16T12:49:27.313Z,1136
2019-01-16T12:50:29.422Z,1460
2019-01-16T12:51:33.677Z,1612
2019-01-16T12:52:35.853Z,1872
2019-01-16T12:53:37.965Z,1832
2019-01-16T12:54:40.097Z,2080
2019-01-16T12:55:42.211Z,2016
2019-01-16T12:56:44.325Z,2632
2019-01-16T12:57:46.449Z,2496
2019-01-16T12:58:48.565Z,2816
2019-01-16T12:59:50.678Z,2272
2019-01-16T13:00:52.797Z,1968
2019-01-16T13:01:54.904Z,1932
2019-01-16T13:02:57.038Z,2224
2019-01-16T13:03:59.168Z,1908
2019-01-16T13:05:01.597Z,2068
2019-01-16T13:06:04.109Z,1788
2019-01-16T13:07:06.907Z,2140
2019-01-16T13:08:09.019Z,1800
2019-01-16T13:09:11.127Z,1844
2019-01-16T13:10:13.265Z,1700
2019-01-16T13:11:15.368Z,1740
2019-01-16T13:12:17.493Z,1404
2019-01-16T13:13:19.609Z,1284
2019-01-16T13:14:21.740Z,1032
2019-01-16T13:15:23.841Z,944
2019-01-16T13:16:25.971Z,1012
2019-01-16T13:17:28.089Z,1152
2019-01-16T13:18:30.190Z,1268
2019-01-16T13:19:32.635Z,1368
2019-01-16T13:20:34.743Z,1416
2019-01-16T13:21:39.912Z,1648
2019-01-16T13:22:45.882Z,3264
2019-01-16T13:23:48.557Z,2604
2019-01-16T13:24:50.667Z,1824
2019-01-16T13:25:52.809Z,1788
2019-01-16T13:26:54.938Z,1660
2019-01-16T13:27:57.443Z,1652
2019-01-16T13:28:59.583Z,1636
2019-01-16T13:30:01.717Z,1760
2019-01-16T13:31:04.119Z,1908
2019-01-16T13:32:06.234Z,2648
2019-01-16T13:33:08.355Z,2664
2019-01-16T13:34:10.467Z,2560
2019-01-16T13:35:12.595Z,2800
2019-01-16T13:36:14.705Z,2780
2019-01-16T13:37:16.811Z,3268
2019-01-16T13:38:18.922Z,3028
2019-01-16T13:39:21.055Z,3160
2019-01-16T13:40:23.155Z,3204
2019-01-16T13:41:25.282Z,2880
2019-01-16T13:42:27.405Z,2852
2019-01-16T13:43:29.508Z,2708
2019-01-16T13:44:31.642Z,2516
2019-01-16T13:45:33.752Z,2040
2019-01-16T13:46:35.867Z,1848
2019-01-16T13:47:38.265Z,1620
2019-01-16T13:48:40.393Z,1544
2019-01-16T13:49:42.776Z,1508
2019-01-16T13:50:44.885Z,1476
2019-01-16T13:51:47.049Z,1436
2019-01-16T13:52:49.161Z,1588
2019-01-16T13:53:51.380Z,1556
2019-01-16T13:54:53.526Z,1556
2019-01-16T13:55:55.650Z,1860
2019-01-16T13:56:57.745Z,1676
2019-01-16T13:57:59.904Z,1360
2019-01-16T13:59:02.026Z,1252
2019-01-16T14:00:04.148Z,1332
2019-01-16T14:01:06.239Z,1660
2019-01-16T14:02:08.369Z,1504
2019-01-16T14:03:10.492Z,1296
2019-01-16T14:04:12.597Z,1428
2019-01-16T14:05:14.710Z,1228
2019-01-16T14:06:16.842Z,1256
2019-01-16T14:07:18.950Z,1536
2019-01-16T14:08:21.464Z,1300
2019-01-16T14:09:23.587Z,1104
2019-01-16T14:10:25.993Z,1268
2019-01-16T14:11:28.103Z,1344
2019-01-16T14:12:30.230Z,1364
2019-01-16T14:13:32.612Z,1180
2019-01-16T14:14:34.753Z,1108
2019-01-16T14:15:36.874Z,1292
2019-01-16T14:16:38.980Z,1064
2019-01-16T14:17:41.114Z,920
2019-01-16T14:18:43.223Z,752
2019-01-16T14:19:45.349Z,772
2019-01-16T14:20:47.457Z,808
2019-01-16T14:21:53.054Z,732
2019-01-16T14:22:55.316Z,768
2019-01-16T14:23:57.459Z,908
2019-01-16T14:24:59.587Z,628
2019-01-16T14:26:02.085Z,580
2019-01-16T14:27:04.217Z,608
2019-01-16T14:28:06.348Z,672
2019-01-16T14:29:11.774Z,664
2019-01-16T14:30:14.085Z,636
2019-01-16T14:31:16.214Z,528
2019-01-16T14:32:18.326Z,572
2019-01-16T14:33:20.714Z,500
2019-01-16T14:34:23.513Z,408
2019-01-16T14:35:25.628Z,484
2019-01-16T14:36:27.741Z,520
2019-01-16T14:37:29.844Z,640